Kezdőlap
METAR-TAF:

METAR-TAF

Repülőterek :

Eureka, Nunavut, Kanada

földrajzi szélesség: 79-59N, földrajzi hosszúság: 085-56W, magasság: 10 m

Jelenlegi meteorológiai megfigyelések

A jelentés 1 órával és 4 perccel ezelõtt készült, 22:00 UTC
Kelet-északkeleti szél 2 kt
Hőmérséklet -25°C
Páratartalom 76%
Légköri nyomás 1028 hPa
Látótávolság: 24.1 km
Borult 9700 lábon
enyhe havazás

METAR: CWEU 182200Z 07002KT 15SM -SN OVC097 M25/M28 A3035 RMK AC8 PCPN VRY LGT SLP295

Idő: 17:04 (23:04 UTC)


TAF: hiányzik

Meteorológiai megfigyelések és előrejelzések több, mint 4000 repülőtéren (METAR és TAF jelentéseket).

A térképen piros és sárga pontok jelzik az elérhető meteorológiai állomásokat.

Mozgassa az egeret a pont fölött, hogy megjelenjen az állomás neve.

Azután kattintson az időjárási megfigyelések és előrejelzések megtekintéséhez.

A térkép megváltoztatása: kattintson a fekete keresztel jelölt zöld gombra ráközelítéshez, a vonallal jelölt zöld gombra távolításhoz, vagy a zöld nyilakra a szomszédos térképek eléréséhez.


METAR-TAF: